createdAt,value
2022-08-25T00:00:46.456Z,20.36
2022-08-25T00:01:46.441Z,20.34
2022-08-25T00:02:55.511Z,20.32
2022-08-25T00:03:47.742Z,20.30
2022-08-25T00:04:46.409Z,20.28
2022-08-25T00:05:47.463Z,20.27
2022-08-25T00:06:46.412Z,20.26
2022-08-25T00:07:46.373Z,20.25
2022-08-25T00:08:46.383Z,20.25
2022-08-25T00:09:46.762Z,20.24
2022-08-25T00:10:53.971Z,20.23
2022-08-25T00:11:47.332Z,20.22
2022-08-25T00:12:46.334Z,20.21
2022-08-25T00:13:46.303Z,20.20
2022-08-25T00:14:46.307Z,20.20
2022-08-25T00:15:46.705Z,20.19
2022-08-25T00:16:46.283Z,20.19
2022-08-25T00:17:46.273Z,20.18
2022-08-25T00:18:46.272Z,20.17
2022-08-25T00:19:46.403Z,20.17
2022-08-25T00:20:48.952Z,20.17
2022-08-25T00:21:46.559Z,20.16
2022-08-25T00:22:46.222Z,20.15
2022-08-25T00:23:46.208Z,20.15
2022-08-25T00:24:46.205Z,20.15
2022-08-25T00:25:46.182Z,20.14
2022-08-25T00:26:46.173Z,20.13
2022-08-25T00:27:46.671Z,20.12
2022-08-25T00:28:46.154Z,20.10
2022-08-25T00:29:46.146Z,20.09
2022-08-25T00:30:46.178Z,20.08
2022-08-25T00:31:46.175Z,20.08
2022-08-25T00:32:55.174Z,20.07
2022-08-25T00:33:47.456Z,20.05
2022-08-25T00:34:46.094Z,20.04
2022-08-25T00:35:46.074Z,20.03
2022-08-25T00:36:46.075Z,20.02
2022-08-25T00:37:46.055Z,20.01
2022-08-25T00:38:46.046Z,20.00
2022-08-25T00:39:46.257Z,20.00
2022-08-25T00:40:46.035Z,20.00
2022-08-25T00:41:46.004Z,20.00
2022-08-25T00:42:46.015Z,19.99
2022-08-25T00:43:45.985Z,19.98
2022-08-25T00:44:46.695Z,19.98
2022-08-25T00:45:46.579Z,19.97
2022-08-25T00:46:45.964Z,19.96
2022-08-25T00:47:45.947Z,19.96
2022-08-25T00:48:45.951Z,19.94
2022-08-25T00:49:45.933Z,19.92
2022-08-25T00:50:45.925Z,19.91
2022-08-25T00:51:46.087Z,19.89
2022-08-25T00:52:45.895Z,19.88
2022-08-25T00:53:45.886Z,19.87
2022-08-25T00:54:45.888Z,19.86
2022-08-25T00:55:45.864Z,19.86
2022-08-25T00:56:45.856Z,19.86
2022-08-25T00:57:46.103Z,19.87
2022-08-25T00:58:45.835Z,19.86
2022-08-25T00:59:45.824Z,19.85
2022-08-25T01:00:45.819Z,19.84
2022-08-25T01:01:45.958Z,19.83
2022-08-25T01:02:45.864Z,19.83
2022-08-25T01:03:46.186Z,19.83
2022-08-25T01:04:48.825Z,19.82
2022-08-25T01:05:45.759Z,19.82
2022-08-25T01:06:45.761Z,19.82
2022-08-25T01:07:45.736Z,19.81
2022-08-25T01:08:45.727Z,19.81
2022-08-25T01:09:45.922Z,19.81
2022-08-25T01:10:45.700Z,19.80
2022-08-25T01:11:45.696Z,19.78
2022-08-25T01:12:45.700Z,19.77
2022-08-25T01:13:45.677Z,19.75
2022-08-25T01:14:45.664Z,19.74
2022-08-25T01:15:45.857Z,19.73
2022-08-25T01:16:45.643Z,19.73
2022-08-25T01:17:45.636Z,19.72
2022-08-25T01:18:45.630Z,19.72
2022-08-25T01:19:45.616Z,19.71
2022-08-25T01:20:45.596Z,19.70
2022-08-25T01:21:45.764Z,19.69
2022-08-25T01:22:45.586Z,19.68
2022-08-25T01:23:46.569Z,19.67
2022-08-25T01:24:45.570Z,19.65
2022-08-25T01:25:45.568Z,19.63
2022-08-25T01:26:45.537Z,19.63
2022-08-25T01:27:45.699Z,19.63
2022-08-25T01:28:45.517Z,19.62
2022-08-25T01:29:45.508Z,19.60
2022-08-25T01:30:45.539Z,19.59
2022-08-25T01:31:45.492Z,19.58
2022-08-25T01:32:45.479Z,19.57
2022-08-25T01:33:45.629Z,19.55
2022-08-25T01:34:45.468Z,19.54
2022-08-25T01:35:45.438Z,19.53
2022-08-25T01:36:45.419Z,19.53
2022-08-25T01:37:45.427Z,19.52
2022-08-25T01:38:45.407Z,19.53
2022-08-25T01:39:45.595Z,19.53
2022-08-25T01:40:45.389Z,19.53
2022-08-25T01:41:45.381Z,19.54
2022-08-25T01:42:45.368Z,19.54
2022-08-25T01:43:45.364Z,19.54
2022-08-25T01:44:45.345Z,19.53
2022-08-25T01:45:45.570Z,19.52
2022-08-25T01:46:45.339Z,19.51
2022-08-25T01:47:45.318Z,19.50
2022-08-25T01:48:45.299Z,19.49
2022-08-25T01:49:45.304Z,19.48
2022-08-25T01:50:45.279Z,19.46
2022-08-25T01:51:45.451Z,19.44
2022-08-25T01:52:45.259Z,19.42
2022-08-25T01:53:45.250Z,19.41
2022-08-25T01:54:45.229Z,19.41
2022-08-25T01:55:45.241Z,19.40
2022-08-25T01:56:45.219Z,19.39
2022-08-25T01:57:45.443Z,19.38
2022-08-25T01:58:45.200Z,19.37
2022-08-25T01:59:45.191Z,19.36
2022-08-25T02:00:45.179Z,19.34
2022-08-25T02:01:45.210Z,19.33
2022-08-25T02:02:45.182Z,19.33
2022-08-25T02:03:45.319Z,19.34
2022-08-25T02:04:45.139Z,19.34
2022-08-25T02:05:45.128Z,19.34
2022-08-25T02:06:53.627Z,19.34
2022-08-25T02:07:45.099Z,19.33
2022-08-25T02:08:45.079Z,19.33
2022-08-25T02:09:45.463Z,19.33
2022-08-25T02:10:45.065Z,19.33
2022-08-25T02:11:45.065Z,19.32
2022-08-25T02:12:45.044Z,19.32
2022-08-25T02:13:45.042Z,19.31
2022-08-25T02:14:45.030Z,19.30
2022-08-25T02:15:45.240Z,19.28
2022-08-25T02:16:45.024Z,19.27
2022-08-25T02:17:44.996Z,19.25
2022-08-25T02:18:44.982Z,19.24
2022-08-25T02:19:44.991Z,19.23
2022-08-25T02:20:44.958Z,19.22
2022-08-25T02:21:45.343Z,19.21
2022-08-25T02:22:45.027Z,19.20
2022-08-25T02:23:45.936Z,19.20
2022-08-25T02:24:44.924Z,19.19
2022-08-25T02:25:44.913Z,19.19
2022-08-25T02:26:44.891Z,19.18
2022-08-25T02:27:45.052Z,19.16
2022-08-25T02:28:45.042Z,19.15
2022-08-25T02:29:44.861Z,19.14
2022-08-25T02:30:44.904Z,19.13
2022-08-25T02:31:44.865Z,19.12
2022-08-25T02:32:44.827Z,19.11
2022-08-25T02:33:44.828Z,19.09
2022-08-25T02:34:44.974Z,19.08
2022-08-25T02:35:44.804Z,19.07
2022-08-25T02:36:44.797Z,19.06
2022-08-25T02:37:44.781Z,19.05
2022-08-25T02:38:44.770Z,19.04
2022-08-25T02:39:44.818Z,19.04
2022-08-25T02:40:44.923Z,19.03
2022-08-25T02:41:44.743Z,19.02
2022-08-25T02:42:44.730Z,19.01
2022-08-25T02:43:44.729Z,19.01
2022-08-25T02:44:44.704Z,19.02
2022-08-25T02:45:44.733Z,19.02
2022-08-25T02:46:44.853Z,19.02
2022-08-25T02:47:44.671Z,19.02
2022-08-25T02:48:44.662Z,19.01
2022-08-25T02:49:44.656Z,19.01
2022-08-25T02:50:44.635Z,19.00
2022-08-25T02:51:44.633Z,18.99
2022-08-25T02:52:44.864Z,18.97
2022-08-25T02:53:44.621Z,18.96
2022-08-25T02:54:44.609Z,18.95
2022-08-25T02:55:44.593Z,18.95
2022-08-25T02:56:44.580Z,18.94
2022-08-25T02:57:44.565Z,18.94
2022-08-25T02:58:44.784Z,18.93
2022-08-25T02:59:44.544Z,18.92
2022-08-25T03:00:44.594Z,18.91
2022-08-25T03:01:44.544Z,18.90
2022-08-25T03:02:44.522Z,18.89
2022-08-25T03:03:44.657Z,18.89
2022-08-25T03:04:45.000Z,18.90
2022-08-25T03:05:44.503Z,18.91
2022-08-25T03:06:44.468Z,18.91
2022-08-25T03:07:44.479Z,18.91
2022-08-25T03:08:44.449Z,18.91
2022-08-25T03:09:44.446Z,18.91
2022-08-25T03:10:44.591Z,18.91
2022-08-25T03:11:44.415Z,18.91
2022-08-25T03:12:44.407Z,18.90
2022-08-25T03:13:44.408Z,18.90
2022-08-25T03:14:44.384Z,18.89
2022-08-25T03:15:44.375Z,18.89
2022-08-25T03:16:46.273Z,18.88
2022-08-25T03:17:45.739Z,18.88
2022-08-25T03:18:44.345Z,18.88
2022-08-25T03:19:44.355Z,18.87
2022-08-25T03:20:44.332Z,18.87
2022-08-25T03:21:44.316Z,18.86
2022-08-25T03:22:44.466Z,18.85
2022-08-25T03:23:44.288Z,18.84
2022-08-25T03:24:44.287Z,18.83
2022-08-25T03:25:44.285Z,18.82
2022-08-25T03:26:44.265Z,18.80
2022-08-25T03:27:44.246Z,18.79
2022-08-25T03:28:44.425Z,18.77
2022-08-25T03:29:44.226Z,18.75
2022-08-25T03:30:44.215Z,18.73
2022-08-25T03:31:44.290Z,18.71
2022-08-25T03:32:44.201Z,18.69
2022-08-25T03:33:44.193Z,18.68
2022-08-25T03:34:44.456Z,18.66
2022-08-25T03:35:44.180Z,18.65
2022-08-25T03:36:44.163Z,18.64
2022-08-25T03:37:44.173Z,18.63
2022-08-25T03:38:44.140Z,18.63
2022-08-25T03:39:44.298Z,18.63
2022-08-25T03:40:44.287Z,18.63
2022-08-25T03:41:44.114Z,18.63
2022-08-25T03:42:45.125Z,18.63
2022-08-25T03:43:44.096Z,18.63
2022-08-25T03:44:44.075Z,18.63
2022-08-25T03:45:44.083Z,18.62
2022-08-25T03:46:44.424Z,18.61
2022-08-25T03:47:44.045Z,18.61
2022-08-25T03:48:44.025Z,18.61
2022-08-25T03:49:44.025Z,18.60
2022-08-25T03:50:44.007Z,18.59
2022-08-25T03:51:45.301Z,18.59
2022-08-25T03:52:43.979Z,18.59
2022-08-25T03:53:43.979Z,18.58
2022-08-25T03:54:43.977Z,18.58
2022-08-25T03:55:43.968Z,18.58
2022-08-25T03:56:44.010Z,18.58
2022-08-25T03:57:44.112Z,18.58
2022-08-25T03:58:43.927Z,18.58
2022-08-25T03:59:43.928Z,18.58
2022-08-25T04:00:43.946Z,18.58
2022-08-25T04:01:43.898Z,18.58
2022-08-25T04:02:43.963Z,18.58
2022-08-25T04:03:44.036Z,18.58
2022-08-25T04:04:43.869Z,18.57
2022-08-25T04:05:43.861Z,18.57
2022-08-25T04:06:43.851Z,18.57
2022-08-25T04:07:43.829Z,18.58
2022-08-25T04:08:44.039Z,18.59
2022-08-25T04:09:43.807Z,18.59
2022-08-25T04:10:43.808Z,18.60
2022-08-25T04:11:43.792Z,18.60
2022-08-25T04:12:43.788Z,18.60
2022-08-25T04:13:43.769Z,18.60
2022-08-25T04:14:43.920Z,18.60
2022-08-25T04:15:43.768Z,18.60
2022-08-25T04:16:43.797Z,18.59
2022-08-25T04:17:43.725Z,18.58
2022-08-25T04:18:43.711Z,18.58
2022-08-25T04:19:43.724Z,18.57
2022-08-25T04:20:46.737Z,18.57
2022-08-25T04:21:43.688Z,18.56
2022-08-25T04:22:44.891Z,18.56
2022-08-25T04:23:43.698Z,18.56
2022-08-25T04:24:43.650Z,18.55
2022-08-25T04:25:43.664Z,18.54
2022-08-25T04:26:43.790Z,18.54
2022-08-25T04:27:43.621Z,18.53
2022-08-25T04:28:43.615Z,18.52
2022-08-25T04:29:43.608Z,18.52
2022-08-25T04:30:43.594Z,18.51
2022-08-25T04:31:43.634Z,18.51
2022-08-25T04:32:43.749Z,18.50
2022-08-25T04:33:43.559Z,18.50
2022-08-25T04:34:43.553Z,18.49
2022-08-25T04:35:43.598Z,18.49
2022-08-25T04:36:43.590Z,18.49
2022-08-25T04:37:43.520Z,18.49
2022-08-25T04:38:43.649Z,18.48
2022-08-25T04:39:43.498Z,18.47
2022-08-25T04:40:43.488Z,18.47
2022-08-25T04:41:43.520Z,18.46
2022-08-25T04:42:43.461Z,18.46
2022-08-25T04:43:43.450Z,18.45
2022-08-25T04:44:43.656Z,18.45
2022-08-25T04:45:43.474Z,18.44
2022-08-25T04:46:43.620Z,18.43
2022-08-25T04:47:43.411Z,18.42
2022-08-25T04:48:43.395Z,18.41
2022-08-25T04:49:43.387Z,18.40
2022-08-25T04:50:43.372Z,18.40
2022-08-25T04:51:43.373Z,18.39
2022-08-25T04:52:43.381Z,18.39
2022-08-25T04:53:43.344Z,18.38
2022-08-25T04:54:43.331Z,18.37
2022-08-25T04:55:43.321Z,18.36
2022-08-25T04:56:43.310Z,18.35
2022-08-25T04:57:43.318Z,18.33
2022-08-25T04:58:43.491Z,18.32
2022-08-25T04:59:43.282Z,18.31
2022-08-25T05:00:43.336Z,18.29
2022-08-25T05:01:43.268Z,18.27
2022-08-25T05:02:43.241Z,18.26
2022-08-25T05:03:43.238Z,18.25
2022-08-25T05:04:43.465Z,18.24
2022-08-25T05:05:43.240Z,18.24
2022-08-25T05:06:43.211Z,18.24
2022-08-25T05:07:43.191Z,18.24
2022-08-25T05:08:43.190Z,18.25
2022-08-25T05:09:43.181Z,18.25
2022-08-25T05:10:43.516Z,18.26
2022-08-25T05:11:43.170Z,18.26
2022-08-25T05:12:43.148Z,18.26
2022-08-25T05:13:43.129Z,18.27
2022-08-25T05:14:43.123Z,18.28
2022-08-25T05:15:43.108Z,18.30
2022-08-25T05:16:43.313Z,18.33
2022-08-25T05:17:43.081Z,18.35
2022-08-25T05:18:43.084Z,18.39
2022-08-25T05:19:43.060Z,18.42
2022-08-25T05:20:43.053Z,18.46
2022-08-25T05:21:43.205Z,18.50
2022-08-25T05:22:43.031Z,18.54
2022-08-25T05:23:43.021Z,18.57
2022-08-25T05:24:43.028Z,18.60
2022-08-25T05:25:42.999Z,18.64
2022-08-25T05:26:42.993Z,18.67
2022-08-25T05:27:43.132Z,18.70
2022-08-25T05:28:42.970Z,18.72
2022-08-25T05:29:42.963Z,18.75
2022-08-25T05:30:42.950Z,18.77
2022-08-25T05:31:47.039Z,18.80
2022-08-25T05:32:44.099Z,18.83
2022-08-25T05:33:42.918Z,18.85
2022-08-25T05:34:42.911Z,18.88
2022-08-25T05:35:42.903Z,18.90
2022-08-25T05:36:42.891Z,18.93
2022-08-25T05:37:42.873Z,18.96
2022-08-25T05:38:43.028Z,18.99
2022-08-25T05:39:42.852Z,19.01
2022-08-25T05:40:42.855Z,19.03
2022-08-25T05:41:42.838Z,19.05
2022-08-25T05:42:42.826Z,19.07
2022-08-25T05:43:42.827Z,19.10
2022-08-25T05:44:42.968Z,19.12
2022-08-25T05:45:42.846Z,19.15
2022-08-25T05:46:42.779Z,19.18
2022-08-25T05:47:42.769Z,19.21
2022-08-25T05:48:42.763Z,19.24
2022-08-25T05:49:42.748Z,19.27
2022-08-25T05:50:43.190Z,19.30
2022-08-25T05:51:42.724Z,19.33
2022-08-25T05:52:42.715Z,19.36
2022-08-25T05:53:42.705Z,19.39
2022-08-25T05:54:42.695Z,19.42
2022-08-25T05:55:42.675Z,19.44
2022-08-25T05:56:42.850Z,19.47
2022-08-25T05:57:42.655Z,19.50
2022-08-25T05:58:42.650Z,19.53
2022-08-25T05:59:42.636Z,19.56
2022-08-25T06:00:42.678Z,19.59
2022-08-25T06:01:43.479Z,19.62
2022-08-25T06:02:42.784Z,19.65
2022-08-25T06:03:42.634Z,19.68
2022-08-25T06:04:42.590Z,19.70
2022-08-25T06:05:42.575Z,19.73
2022-08-25T06:06:42.574Z,19.75
2022-08-25T06:07:42.546Z,19.77
2022-08-25T06:08:42.719Z,19.78
2022-08-25T06:09:42.542Z,19.79
2022-08-25T06:10:42.525Z,19.80
2022-08-25T06:11:42.512Z,19.81
2022-08-25T06:12:42.503Z,19.82
2022-08-25T06:13:42.504Z,19.83
2022-08-25T06:14:42.692Z,19.85
2022-08-25T06:15:42.468Z,19.86
2022-08-25T06:16:42.505Z,19.87
2022-08-25T06:17:42.460Z,19.89
2022-08-25T06:18:42.445Z,19.90
2022-08-25T06:19:42.427Z,19.91
2022-08-25T06:20:42.760Z,19.92
2022-08-25T06:21:42.406Z,19.93
2022-08-25T06:22:42.417Z,19.94
2022-08-25T06:23:42.396Z,19.96
2022-08-25T06:24:42.377Z,19.97
2022-08-25T06:25:42.359Z,19.99
2022-08-25T06:26:43.076Z,20.00
2022-08-25T06:27:42.345Z,20.02
2022-08-25T06:28:42.336Z,20.03
2022-08-25T06:29:42.328Z,20.06
2022-08-25T06:30:42.318Z,20.08
2022-08-25T06:31:42.362Z,20.11
2022-08-25T06:32:42.448Z,20.14
2022-08-25T06:33:42.283Z,20.17
2022-08-25T06:34:42.281Z,20.20
2022-08-25T06:35:42.257Z,20.24
2022-08-25T06:36:42.248Z,20.27
2022-08-25T06:37:42.494Z,20.31
2022-08-25T06:38:42.229Z,20.34
2022-08-25T06:39:42.208Z,20.39
2022-08-25T06:40:42.205Z,20.43
2022-08-25T06:41:42.223Z,20.48
2022-08-25T06:42:42.187Z,20.52
2022-08-25T06:43:48.156Z,20.57
2022-08-25T06:44:43.171Z,20.61
2022-08-25T06:45:42.147Z,20.66
2022-08-25T06:46:42.177Z,20.70
2022-08-25T06:47:42.132Z,20.75
2022-08-25T06:48:42.272Z,20.79
2022-08-25T06:49:42.104Z,20.82
2022-08-25T06:50:42.123Z,20.86
2022-08-25T06:51:42.090Z,20.90
2022-08-25T06:52:42.078Z,20.93
2022-08-25T06:53:42.068Z,20.97
2022-08-25T06:54:42.241Z,21.00
2022-08-25T06:55:42.060Z,21.04
2022-08-25T06:56:42.047Z,21.07
2022-08-25T06:57:42.019Z,21.11
2022-08-25T06:58:42.028Z,21.15
2022-08-25T06:59:42.014Z,21.18
2022-08-25T07:00:42.235Z,21.21
2022-08-25T07:01:42.097Z,21.25
2022-08-25T07:02:41.997Z,21.29
2022-08-25T07:03:41.959Z,21.33
2022-08-25T07:04:41.969Z,21.37
2022-08-25T07:05:43.823Z,21.41
2022-08-25T07:06:42.090Z,21.46
2022-08-25T07:07:43.857Z,21.49
2022-08-25T07:08:41.901Z,21.53
2022-08-25T07:09:41.916Z,21.57
2022-08-25T07:10:41.905Z,21.62
2022-08-25T07:11:43.130Z,21.68
2022-08-25T07:12:41.870Z,21.74
2022-08-25T07:13:41.860Z,21.79
2022-08-25T07:14:46.625Z,21.84
2022-08-25T07:15:42.833Z,21.89
2022-08-25T07:16:45.989Z,21.93
2022-08-25T07:17:42.971Z,21.97
2022-08-25T07:18:41.806Z,22.02
2022-08-25T07:19:41.961Z,22.06
2022-08-25T07:20:41.781Z,22.10
2022-08-25T07:21:41.777Z,22.16
2022-08-25T07:22:41.762Z,22.22
2022-08-25T07:23:41.758Z,22.28
2022-08-25T07:24:41.762Z,22.35
2022-08-25T07:25:41.892Z,22.42
2022-08-25T07:26:41.715Z,22.48
2022-08-25T07:27:42.407Z,22.53
2022-08-25T07:28:47.239Z,22.57
2022-08-25T07:29:42.859Z,22.61
2022-08-25T07:30:41.697Z,22.65
2022-08-25T07:31:42.006Z,22.68
2022-08-25T07:32:41.932Z,22.71
2022-08-25T07:33:41.649Z,22.74
2022-08-25T07:34:41.633Z,22.80
2022-08-25T07:35:43.705Z,22.88
2022-08-25T07:36:41.614Z,22.96
2022-08-25T07:37:49.580Z,23.03
2022-08-25T07:38:42.589Z,23.08
2022-08-25T07:39:41.620Z,23.14
2022-08-25T07:40:42.692Z,23.21
2022-08-25T07:41:41.552Z,23.29
2022-08-25T07:42:41.554Z,23.35
2022-08-25T07:43:41.734Z,23.39
2022-08-25T07:44:41.525Z,23.43
2022-08-25T07:46:42.661Z,23.49
2022-08-25T07:47:41.484Z,23.51
2022-08-25T07:48:41.485Z,23.54
2022-08-25T07:49:41.712Z,23.56
2022-08-25T07:50:41.462Z,23.59
2022-08-25T07:52:04.185Z,23.61
2022-08-25T07:52:42.456Z,23.64
2022-08-25T07:53:41.424Z,23.65
2022-08-25T07:54:41.418Z,23.68
2022-08-25T07:55:41.746Z,23.70
2022-08-25T07:56:41.399Z,23.71
2022-08-25T07:57:41.389Z,23.72
2022-08-25T07:58:41.372Z,23.72
2022-08-25T07:59:41.355Z,23.72
2022-08-25T08:00:42.433Z,23.72
2022-08-25T08:01:41.588Z,23.72
2022-08-25T08:02:41.488Z,23.71
2022-08-25T08:03:51.224Z,23.71
2022-08-25T08:04:42.314Z,23.71
2022-08-25T08:05:41.311Z,23.72
2022-08-25T08:06:41.289Z,23.73
2022-08-25T08:07:43.042Z,23.75
2022-08-25T08:08:41.272Z,23.75
2022-08-25T08:09:41.250Z,23.76
2022-08-25T08:11:02.863Z,23.75
2022-08-25T08:11:45.580Z,23.75
2022-08-25T08:12:42.384Z,23.74
2022-08-25T08:13:41.584Z,23.74
2022-08-25T08:14:45.043Z,23.74
2022-08-25T08:15:42.236Z,23.74
2022-08-25T08:16:41.177Z,23.74
2022-08-25T08:17:41.162Z,23.73
2022-08-25T08:18:41.542Z,23.73
2022-08-25T08:19:44.889Z,23.72
2022-08-25T08:20:43.120Z,23.72
2022-08-25T08:21:41.116Z,23.71
2022-08-25T08:22:41.114Z,23.70
2022-08-25T08:23:41.275Z,23.70
2022-08-25T08:24:48.234Z,23.70
2022-08-25T08:25:42.075Z,23.71
2022-08-25T08:26:58.147Z,23.73
2022-08-25T08:27:42.067Z,23.76
2022-08-25T08:28:41.047Z,23.80
2022-08-25T08:29:41.038Z,23.83
2022-08-25T08:30:53.746Z,23.87
2022-08-25T08:31:42.078Z,23.92
2022-08-25T08:33:06.361Z,23.96
2022-08-25T08:33:42.021Z,24.00
2022-08-25T08:34:40.983Z,24.03
2022-08-25T08:35:41.139Z,24.06
2022-08-25T08:36:41.197Z,24.10
2022-08-25T08:37:40.958Z,24.14
2022-08-25T08:38:40.941Z,24.17
2022-08-25T08:39:40.948Z,24.21
2022-08-25T08:40:40.921Z,24.24
2022-08-25T08:42:07.734Z,24.27
2022-08-25T08:42:42.072Z,24.28
2022-08-25T08:43:40.888Z,24.29
2022-08-25T08:44:40.899Z,24.30
2022-08-25T08:45:44.056Z,24.30
2022-08-25T08:46:40.912Z,24.30
2022-08-25T08:47:40.839Z,24.30
2022-08-25T08:48:40.989Z,24.30
2022-08-25T08:49:40.827Z,24.29
2022-08-25T08:50:40.830Z,24.29
2022-08-25T08:51:40.801Z,24.29
2022-08-25T08:52:40.799Z,24.30
2022-08-25T08:53:40.800Z,24.31
2022-08-25T08:54:41.217Z,24.33
2022-08-25T08:55:40.755Z,24.37
2022-08-25T08:56:45.216Z,24.41
2022-08-25T08:57:41.757Z,24.46
2022-08-25T08:58:40.720Z,24.49
2022-08-25T08:59:40.709Z,24.52
2022-08-25T09:00:40.856Z,24.54
2022-08-25T09:01:40.721Z,24.55
2022-08-25T09:02:51.649Z,24.57
2022-08-25T09:03:42.462Z,24.59
2022-08-25T09:04:40.665Z,24.61
2022-08-25T09:05:44.959Z,24.62
2022-08-25T09:06:41.830Z,24.63
2022-08-25T09:07:42.152Z,24.63
2022-08-25T09:08:44.481Z,24.64
2022-08-25T09:09:41.286Z,24.66
2022-08-25T09:10:40.591Z,24.68
2022-08-25T09:11:40.595Z,24.71
2022-08-25T09:12:40.797Z,24.75
2022-08-25T09:13:41.559Z,24.79
2022-08-25T09:14:40.554Z,24.84
2022-08-25T09:15:41.271Z,24.88
2022-08-25T09:16:40.570Z,24.93
2022-08-25T09:17:40.539Z,24.96
2022-08-25T09:18:50.729Z,24.98
2022-08-25T09:19:41.741Z,25.00
2022-08-25T09:20:40.484Z,25.02
2022-08-25T09:21:40.493Z,25.02
2022-08-25T09:22:40.462Z,25.02
2022-08-25T09:23:40.452Z,25.01
2022-08-25T09:24:40.607Z,25.00
2022-08-25T09:25:53.543Z,24.99
2022-08-25T09:26:41.418Z,24.97
2022-08-25T09:27:40.520Z,24.95
2022-08-25T09:28:40.405Z,24.93
2022-08-25T09:29:40.383Z,24.92
2022-08-25T09:30:40.556Z,24.92
2022-08-25T09:31:40.421Z,24.93
2022-08-25T09:32:40.353Z,24.94
2022-08-25T09:33:40.347Z,24.94
2022-08-25T09:34:40.337Z,24.94
2022-08-25T09:35:40.328Z,24.94
2022-08-25T09:36:40.327Z,24.93
2022-08-25T09:37:40.360Z,24.92
2022-08-25T09:38:40.291Z,24.90
2022-08-25T09:39:40.284Z,24.89
2022-08-25T09:40:40.302Z,24.88
2022-08-25T09:41:40.973Z,24.87
2022-08-25T09:42:40.244Z,24.87
2022-08-25T09:43:40.274Z,24.86
2022-08-25T09:44:40.224Z,24.86
2022-08-25T09:45:40.217Z,24.87
2022-08-25T09:46:40.281Z,24.89
2022-08-25T09:47:40.356Z,24.92
2022-08-25T09:48:40.947Z,24.95
2022-08-25T09:49:40.187Z,24.96
2022-08-25T09:50:43.970Z,24.97
2022-08-25T09:51:43.201Z,24.99
2022-08-25T09:52:41.708Z,25.00
2022-08-25T09:53:40.346Z,25.04
2022-08-25T09:54:44.164Z,25.09
2022-08-25T09:55:41.115Z,25.14
2022-08-25T09:56:40.095Z,25.18
2022-08-25T09:57:40.083Z,25.20
2022-08-25T09:58:40.097Z,25.21
2022-08-25T09:59:40.298Z,25.21
2022-08-25T10:00:41.056Z,25.20
2022-08-25T10:01:40.104Z,25.19
2022-08-25T10:02:40.025Z,25.18
2022-08-25T10:03:40.016Z,25.17
2022-08-25T10:04:40.414Z,25.15
2022-08-25T10:05:40.160Z,25.13
2022-08-25T10:06:39.991Z,25.12
2022-08-25T10:07:39.985Z,25.11
2022-08-25T10:08:40.043Z,25.10
2022-08-25T10:09:39.956Z,25.09
2022-08-25T10:10:41.933Z,25.09
2022-08-25T10:11:40.099Z,25.09
2022-08-25T10:12:42.327Z,25.09
2022-08-25T10:13:39.956Z,25.09
2022-08-25T10:14:39.907Z,25.09
2022-08-25T10:15:39.955Z,25.08
2022-08-25T10:16:39.923Z,25.08
2022-08-25T10:17:40.057Z,25.08
2022-08-25T10:18:39.857Z,25.08
2022-08-25T10:19:39.855Z,25.08
2022-08-25T10:20:44.402Z,25.08
2022-08-25T10:21:40.832Z,25.08
2022-08-25T10:22:39.898Z,25.09
2022-08-25T10:23:40.191Z,25.09
2022-08-25T10:24:41.000Z,25.10
2022-08-25T10:25:39.871Z,25.10
2022-08-25T10:26:39.768Z,25.11
2022-08-25T10:27:39.834Z,25.14
2022-08-25T10:28:39.782Z,25.19
2022-08-25T10:29:40.980Z,25.25
2022-08-25T10:30:39.792Z,25.31
2022-08-25T10:31:41.350Z,25.37
2022-08-25T10:32:39.708Z,25.42
2022-08-25T10:33:39.708Z,25.48
2022-08-25T10:34:39.699Z,25.53
2022-08-25T10:35:39.927Z,25.58
2022-08-25T10:36:39.672Z,25.62
2022-08-25T10:37:39.660Z,25.65
2022-08-25T10:38:39.661Z,25.69
2022-08-25T10:39:40.479Z,25.73
2022-08-25T10:40:39.697Z,25.77
2022-08-25T10:41:39.800Z,25.80
2022-08-25T10:42:39.623Z,25.84
2022-08-25T10:43:39.599Z,25.87
2022-08-25T10:44:39.588Z,25.89
2022-08-25T10:45:39.588Z,25.90
2022-08-25T10:46:39.635Z,25.90
2022-08-25T10:47:39.726Z,25.89
2022-08-25T10:48:39.553Z,25.89
2022-08-25T10:49:39.531Z,25.89
2022-08-25T10:50:39.529Z,25.89
2022-08-25T10:51:40.523Z,25.90
2022-08-25T10:52:39.500Z,25.92
2022-08-25T10:53:39.660Z,25.94
2022-08-25T10:54:39.483Z,26.00
2022-08-25T10:55:40.352Z,26.07
2022-08-25T10:56:40.787Z,26.12
2022-08-25T10:57:39.471Z,26.17
2022-08-25T10:58:39.582Z,26.21
2022-08-25T10:59:39.633Z,26.23
2022-08-25T11:00:40.312Z,26.24
2022-08-25T11:01:44.054Z,26.25
2022-08-25T11:02:41.524Z,26.25
2022-08-25T11:03:39.406Z,26.26
2022-08-25T11:04:39.431Z,26.26
2022-08-25T11:05:39.579Z,26.26
2022-08-25T11:06:39.365Z,26.25
2022-08-25T11:07:39.344Z,26.24
2022-08-25T11:08:39.337Z,26.24
2022-08-25T11:09:39.332Z,26.25
2022-08-25T11:10:39.307Z,26.27
2022-08-25T11:11:39.469Z,26.29
2022-08-25T11:12:39.282Z,26.30
2022-08-25T11:13:39.302Z,26.32
2022-08-25T11:14:39.279Z,26.33
2022-08-25T11:15:41.456Z,26.34
2022-08-25T11:16:40.485Z,26.36
2022-08-25T11:17:39.234Z,26.38
2022-08-25T11:18:39.234Z,26.41
2022-08-25T11:19:39.219Z,26.45
2022-08-25T11:20:39.205Z,26.48
2022-08-25T11:21:39.212Z,26.50
2022-08-25T11:22:39.365Z,26.52
2022-08-25T11:23:39.176Z,26.53
2022-08-25T11:24:39.154Z,26.54
2022-08-25T11:25:39.163Z,26.56
2022-08-25T11:26:39.147Z,26.59
2022-08-25T11:27:39.136Z,26.62
2022-08-25T11:28:39.287Z,26.64
2022-08-25T11:29:39.545Z,26.65
2022-08-25T11:30:39.233Z,26.65
2022-08-25T11:31:39.102Z,26.67
2022-08-25T11:32:39.068Z,26.68
2022-08-25T11:33:39.085Z,26.68
2022-08-25T11:34:40.109Z,26.69
2022-08-25T11:35:39.047Z,26.70
2022-08-25T11:36:39.053Z,26.71
2022-08-25T11:37:39.025Z,26.74
2022-08-25T11:38:39.012Z,26.78
2022-08-25T11:39:39.008Z,26.84
2022-08-25T11:40:39.384Z,26.89
2022-08-25T11:41:38.986Z,26.93
2022-08-25T11:42:38.976Z,26.95
2022-08-25T11:43:40.544Z,26.95
2022-08-25T11:44:38.957Z,26.95
2022-08-25T11:45:40.161Z,26.95
2022-08-25T11:46:38.940Z,26.94
2022-08-25T11:47:38.928Z,26.92
2022-08-25T11:48:38.898Z,26.90
2022-08-25T11:49:38.899Z,26.87
2022-08-25T11:50:38.886Z,26.84
2022-08-25T11:51:39.066Z,26.83
2022-08-25T11:52:38.867Z,26.83
2022-08-25T11:53:38.859Z,26.84
2022-08-25T11:54:38.844Z,26.85
2022-08-25T11:55:38.844Z,26.86
2022-08-25T11:56:40.134Z,26.87
2022-08-25T11:57:38.873Z,26.88
2022-08-25T11:58:38.809Z,26.91
2022-08-25T11:59:38.799Z,26.94
2022-08-25T12:00:38.785Z,26.95
2022-08-25T12:01:38.768Z,26.95
2022-08-25T12:02:38.762Z,26.95
2022-08-25T12:03:38.928Z,26.93
2022-08-25T12:04:45.102Z,26.91
2022-08-25T12:05:39.809Z,26.91
2022-08-25T12:06:38.719Z,26.92
2022-08-25T12:07:38.743Z,26.93
2022-08-25T12:08:38.943Z,26.93
2022-08-25T12:09:38.714Z,26.92
2022-08-25T12:10:38.675Z,26.90
2022-08-25T12:11:38.689Z,26.88
2022-08-25T12:12:38.678Z,26.86
2022-08-25T12:13:38.665Z,26.83
2022-08-25T12:14:38.880Z,26.82
2022-08-25T12:15:38.632Z,26.84
2022-08-25T12:16:38.634Z,26.85
2022-08-25T12:17:38.598Z,26.86
2022-08-25T12:18:38.587Z,26.85
2022-08-25T12:19:39.932Z,26.85
2022-08-25T12:20:38.562Z,26.84
2022-08-25T12:21:38.552Z,26.84
2022-08-25T12:22:38.562Z,26.86
2022-08-25T12:23:39.884Z,26.90
2022-08-25T12:24:39.524Z,26.94
2022-08-25T12:25:39.686Z,26.99
2022-08-25T12:26:38.501Z,27.03
2022-08-25T12:27:38.507Z,27.05
2022-08-25T12:28:39.044Z,27.06
2022-08-25T12:29:38.483Z,27.08
2022-08-25T12:30:38.745Z,27.10
2022-08-25T12:31:38.457Z,27.11
2022-08-25T12:32:38.443Z,27.10
2022-08-25T12:33:38.431Z,27.10
2022-08-25T12:34:38.424Z,27.11
2022-08-25T12:35:38.487Z,27.13
2022-08-25T12:36:38.618Z,27.17
2022-08-25T12:37:38.384Z,27.20
2022-08-25T12:38:42.488Z,27.25
2022-08-25T12:39:39.365Z,27.29
2022-08-25T12:40:38.357Z,27.32
2022-08-25T12:41:38.382Z,27.34
2022-08-25T12:42:38.333Z,27.34
2022-08-25T12:43:38.419Z,27.34
2022-08-25T12:44:38.315Z,27.34
2022-08-25T12:45:38.333Z,27.34
2022-08-25T12:46:38.291Z,27.33
2022-08-25T12:47:40.848Z,27.32
2022-08-25T12:48:39.282Z,27.33
2022-08-25T12:49:38.269Z,27.36
2022-08-25T12:50:38.260Z,27.42
2022-08-25T12:51:38.244Z,27.49
2022-08-25T12:52:38.292Z,27.55
2022-08-25T12:53:38.480Z,27.60